Time;durP1;ratioP1;P1;durP2;ratioP2;P2;SDS_P1;SDS_P2;PMS_P1;PMS_P2;Temp;Humidity;BMP_temperature;BMP_pressure;BME280_temperature;BME280_humidity;BME280_pressure;Samples;Min_cycle;Max_cycle;Signal;HPM_P1;HPM_P2
2022/03/09 00:00:40;;;;;;;6.50;5.60;;;2.70;99.90;;;;;;5955685;24;20442;-70
2022/03/09 00:03:09;;;;;;;7.47;5.70;;;2.60;99.90;;;;;;5987753;24;20430;-70
2022/03/09 00:05:38;;;;;;;7.37;6.30;;;2.60;99.90;;;;;;5956328;24;20454;-70
2022/03/09 00:08:06;;;;;;;6.07;5.47;;;2.50;99.90;;;;;;5989827;24;20494;-70
2022/03/09 00:10:34;;;;;;;8.43;6.17;;;2.50;99.90;;;;;;5989242;24;20415;-70
2022/03/09 00:13:02;;;;;;;7.07;5.77;;;2.40;99.90;;;;;;5988308;24;20435;-70
2022/03/09 00:15:29;;;;;;;6.10;5.50;;;2.40;99.90;;;;;;5979939;23;20636;-70
2022/03/09 00:17:57;;;;;;;5.53;5.03;;;2.40;99.90;;;;;;5989008;24;20470;-70
2022/03/09 00:20:29;;;;;;;6.97;6.27;;;2.30;99.90;;;;;;5988449;24;20501;-69
2022/03/09 00:22:57;;;;;;;5.80;5.20;;;2.40;99.90;;;;;;5979443;24;20478;-69
2022/03/09 00:25:25;;;;;;;5.77;5.27;;;2.30;99.90;;;;;;5981123;23;20906;-69
2022/03/09 00:27:53;;;;;;;5.70;5.20;;;2.30;99.90;;;;;;5989690;24;20415;-69
2022/03/09 00:30:21;;;;;;;6.30;5.70;;;2.30;99.90;;;;;;5987948;24;20414;-69
2022/03/09 00:32:49;;;;;;;6.53;5.80;;;2.20;99.90;;;;;;5988571;24;20434;-69
2022/03/09 00:35:17;;;;;;;6.33;5.67;;;2.20;99.90;;;;;;5953522;24;20442;-69
2022/03/09 00:37:46;;;;;;;5.67;5.13;;;2.20;99.90;;;;;;5988448;24;20494;-69
2022/03/09 00:40:14;;;;;;;7.60;5.43;;;2.10;99.90;;;;;;5987976;24;20421;-68
2022/03/09 00:42:42;;;;;;;7.40;5.50;;;2.10;99.90;;;;;;5989390;24;20435;-70
2022/03/09 00:45:11;;;;;;;6.70;5.53;;;2.10;99.90;;;;;;5981240;23;20450;-70
2022/03/09 00:47:39;;;;;;;6.03;5.43;;;2.10;99.90;;;;;;5988793;24;20482;-69
2022/03/09 00:50:07;;;;;;;7.57;6.30;;;2.10;99.90;;;;;;5988623;24;20497;-69
2022/03/09 00:52:37;;;;;;;6.53;5.83;;;2.10;99.90;;;;;;5988272;24;20438;-69
2022/03/09 00:55:08;;;;;;;8.40;5.93;;;2.00;99.90;;;;;;5981766;23;20454;-69
2022/03/09 00:57:41;;;;;;;7.30;5.40;;;2.00;99.90;;;;;;5955149;24;20442;-69
2022/03/09 01:00:09;;;;;;;5.83;5.30;;;1.90;99.90;;;;;;5953859;24;20518;-69
2022/03/09 01:02:57;;;;;;;7.00;5.60;;;1.90;99.90;;;;;;5978690;24;20462;-68
2022/03/09 01:05:26;;;;;;;6.67;5.97;;;1.80;99.90;;;;;;5980732;23;20460;-70
2022/03/09 01:07:53;;;;;;;6.30;5.53;;;1.90;99.90;;;;;;5988551;24;20490;-69
2022/03/09 01:10:23;;;;;;;6.60;5.80;;;1.80;99.90;;;;;;5988540;24;20423;-68
2022/03/09 01:12:51;;;;;;;8.83;5.00;;;1.80;99.90;;;;;;5987966;24;20434;-69
2022/03/09 01:15:19;;;;;;;6.27;5.67;;;1.80;99.90;;;;;;5980511;23;20510;-68
2022/03/09 01:17:47;;;;;;;6.53;5.03;;;1.70;99.90;;;;;;5988003;24;20406;-70
2022/03/09 01:20:15;;;;;;;6.77;6.07;;;1.70;99.90;;;;;;5987742;24;20510;-68
2022/03/09 01:22:45;;;;;;;6.00;5.40;;;1.70;99.90;;;;;;5955048;24;20825;-69
2022/03/09 01:25:13;;;;;;;6.10;5.10;;;1.60;99.90;;;;;;5980492;23;20457;-69
2022/03/09 01:27:42;;;;;;;6.50;5.63;;;1.60;99.90;;;;;;5988063;24;20434;-69
2022/03/09 01:30:11;;;;;;;7.67;6.07;;;1.60;99.90;;;;;;5987739;24;20484;-70
2022/03/09 01:32:39;;;;;;;6.63;5.50;;;1.60;99.90;;;;;;5988886;24;20434;-69
2022/03/09 01:35:07;;;;;;;7.23;6.20;;;1.50;99.90;;;;;;5980955;23;20510;-69
2022/03/09 01:37:35;;;;;;;7.10;5.80;;;1.50;99.90;;;;;;5988436;24;20419;-69
2022/03/09 01:40:05;;;;;;;7.47;6.20;;;1.40;99.90;;;;;;5962786;24;20418;-69
2022/03/09 01:42:32;;;;;;;6.83;5.47;;;1.40;99.90;;;;;;5987761;24;20439;-68
2022/03/09 01:45:03;;;;;;;5.80;5.13;;;1.30;99.90;;;;;;5981467;23;20962;-70
2022/03/09 01:47:31;;;;;;;5.93;5.33;;;1.30;99.90;;;;;;5988463;24;20430;-69
2022/03/09 01:49:59;;;;;;;6.70;5.80;;;1.30;99.90;;;;;;5987455;24;20429;-69
2022/03/09 01:52:28;;;;;;;5.80;5.20;;;1.20;99.90;;;;;;5988040;24;20422;-69
2022/03/09 01:54:56;;;;;;;7.27;5.70;;;1.20;99.90;;;;;;5982709;23;20454;-69
2022/03/09 01:57:24;;;;;;;6.83;5.50;;;1.20;99.90;;;;;;5987881;24;20406;-69
2022/03/09 01:59:53;;;;;;;7.70;5.97;;;1.20;99.90;;;;;;5988676;24;20423;-69
2022/03/09 02:02:22;;;;;;;7.77;5.50;;;1.20;99.90;;;;;;5963048;24;20418;-69
2022/03/09 02:04:51;;;;;;;6.73;6.03;;;1.20;99.90;;;;;;5982241;23;20455;-69
2022/03/09 02:09:41;;;;;;;9.93;6.10;;;1.10;99.90;;;;;;5953948;24;20826;-68
2022/03/09 02:10:07;;;;;;;7.27;5.77;;;1.10;99.90;;;;;;5953454;24;20461;-69
2022/03/09 02:12:35;;;;;;;8.30;5.57;;;1.10;99.90;;;;;;5987407;24;20439;-69
2022/03/09 02:15:04;;;;;;;6.53;5.33;;;1.00;99.90;;;;;;5980877;23;20482;-68
2022/03/09 02:17:34;;;;;;;6.20;5.60;;;1.00;99.90;;;;;;5979137;24;20897;-69
2022/03/09 02:20:03;;;;;;;6.20;5.60;;;1.00;99.90;;;;;;5987308;24;20422;-69
2022/03/09 02:22:38;;;;;;;7.60;5.60;;;1.00;99.90;;;;;;5987622;24;20438;-68
2022/03/09 02:25:09;;;;;;;6.73;5.70;;;0.90;99.90;;;;;;5980164;23;20490;-69
2022/03/09 02:27:37;;;;;;;6.27;5.60;;;0.90;99.90;;;;;;5987837;24;20489;-69
2022/03/09 02:30:07;;;;;;;7.30;5.63;;;0.90;99.90;;;;;;5987388;24;20415;-69
2022/03/09 02:32:41;;;;;;;7.17;6.00;;;0.90;99.90;;;;;;5987699;24;20427;-69
2022/03/09 02:35:11;;;;;;;6.03;5.43;;;0.90;99.90;;;;;;5980583;23;20906;-68
2022/03/09 02:37:40;;;;;;;6.40;5.50;;;0.90;99.90;;;;;;5988402;24;20418;-69
2022/03/09 02:40:10;;;;;;;6.27;5.37;;;0.80;99.90;;;;;;5986942;24;20453;-70
2022/03/09 02:42:38;;;;;;;6.90;5.43;;;0.80;99.90;;;;;;5987473;24;20434;-69
2022/03/09 02:45:11;;;;;;;6.87;5.63;;;0.80;99.90;;;;;;5980736;23;20462;-69
2022/03/09 02:47:40;;;;;;;7.23;5.80;;;0.70;99.90;;;;;;5987742;24;20474;-69
2022/03/09 02:50:11;;;;;;;6.50;5.80;;;0.70;99.90;;;;;;5987417;24;20449;-69
2022/03/09 02:52:42;;;;;;;6.77;6.10;;;0.70;99.90;;;;;;5986684;24;20434;-69
2022/03/09 02:55:12;;;;;;;6.50;5.90;;;0.70;99.90;;;;;;5975648;23;20465;-70
2022/03/09 02:57:41;;;;;;;6.63;6.00;;;0.70;99.90;;;;;;5986032;24;20418;-69
2022/03/09 03:00:11;;;;;;;6.70;5.93;;;0.70;99.90;;;;;;5953688;24;20430;-69
2022/03/09 03:02:40;;;;;;;7.20;6.17;;;0.70;99.90;;;;;;5954130;24;20473;-69
2022/03/09 03:05:09;;;;;;;6.50;5.50;;;0.70;99.90;;;;;;5980155;23;20459;-69
2022/03/09 03:07:37;;;;;;;6.50;5.90;;;0.60;99.90;;;;;;5987358;24;20450;-69
2022/03/09 03:10:07;;;;;;;7.40;6.00;;;0.60;99.90;;;;;;5987461;24;20482;-69
2022/03/09 03:12:35;;;;;;;7.00;5.90;;;0.60;99.90;;;;;;5953032;24;20443;-69
2022/03/09 03:15:05;;;;;;;7.50;6.20;;;0.50;99.90;;;;;;5952524;24;20473;-69
2022/03/09 03:17:35;;;;;;;8.30;6.50;;;0.50;99.90;;;;;;5988102;24;20505;-69
2022/03/09 03:20:04;;;;;;;7.00;5.73;;;0.50;99.90;;;;;;5987405;24;20414;-69
2022/03/09 03:22:32;;;;;;;7.13;6.00;;;0.50;99.90;;;;;;5979063;24;20514;-69
2022/03/09 03:25:00;;;;;;;8.40;6.60;;;0.40;99.90;;;;;;5976642;23;20835;-69
2022/03/09 03:27:29;;;;;;;6.87;6.20;;;0.40;99.90;;;;;;5987961;24;20418;-69
2022/03/09 03:29:57;;;;;;;6.73;6.03;;;0.40;99.90;;;;;;5986765;24;20410;-69
2022/03/09 03:32:25;;;;;;;8.87;6.73;;;0.50;99.90;;;;;;5987481;24;20414;-69
2022/03/09 03:34:53;;;;;;;7.67;6.73;;;0.40;99.90;;;;;;5981099;23;21025;-69
2022/03/09 03:37:21;;;;;;;7.07;5.47;;;0.40;99.90;;;;;;5988449;24;20410;-69
2022/03/09 03:39:49;;;;;;;6.97;6.27;;;0.40;99.90;;;;;;5987536;24;20454;-69
2022/03/09 03:42:18;;;;;;;7.33;6.10;;;0.40;99.90;;;;;;5987268;24;20453;-69
2022/03/09 03:44:47;;;;;;;6.93;6.30;;;0.40;99.90;;;;;;5981915;23;20457;-70
2022/03/09 03:47:15;;;;;;;6.63;5.67;;;0.40;99.90;;;;;;5988146;24;20410;-69
2022/03/09 03:49:43;;;;;;;7.13;6.00;;;0.40;99.90;;;;;;5986960;24;20520;-69
2022/03/09 03:52:11;;;;;;;7.53;6.23;;;0.40;99.90;;;;;;5985533;24;20493;-70
2022/03/09 03:54:38;;;;;;;7.30;6.47;;;0.30;99.90;;;;;;5980835;23;20454;-69
2022/03/09 03:57:07;;;;;;;8.03;6.50;;;0.40;99.90;;;;;;5986279;24;20422;-69
2022/03/09 03:59:35;;;;;;;6.93;6.23;;;0.40;99.90;;;;;;5987298;24;20517;-69
2022/03/09 04:02:04;;;;;;;7.47;6.20;;;0.40;99.90;;;;;;5986148;24;20422;-69
2022/03/09 04:04:32;;;;;;;7.90;6.00;;;0.40;99.90;;;;;;5982588;23;20942;-69
2022/03/09 04:07:00;;;;;;;8.43;6.40;;;0.40;99.90;;;;;;5954190;24;20426;-69
2022/03/09 04:09:28;;;;;;;8.80;6.70;;;0.40;99.90;;;;;;5977444;24;20472;-69
2022/03/09 04:11:56;;;;;;;7.93;6.83;;;0.30;99.90;;;;;;5987606;24;20521;-69
2022/03/09 04:14:24;;;;;;;7.43;6.20;;;0.40;99.90;;;;;;5983668;23;20465;-69
2022/03/09 04:16:53;;;;;;;7.57;6.83;;;0.40;99.90;;;;;;5987812;24;20534;-70
2022/03/09 04:19:23;;;;;;;7.83;7.03;;;0.40;99.90;;;;;;5976435;24;20473;-69
2022/03/09 04:21:50;;;;;;;8.20;6.30;;;0.40;99.90;;;;;;5987658;24;20418;-69
2022/03/09 04:24:18;;;;;;;6.70;5.90;;;0.40;99.90;;;;;;5976605;23;20481;-69
2022/03/09 04:26:46;;;;;;;6.40;5.80;;;0.40;99.90;;;;;;5953252;24;20429;-69
2022/03/09 04:29:14;;;;;;;6.90;5.80;;;0.40;99.90;;;;;;5987217;24;20430;-69
2022/03/09 04:31:42;;;;;;;7.03;5.83;;;0.30;99.90;;;;;;5986755;24;20410;-69
2022/03/09 04:34:10;;;;;;;11.50;7.07;;;0.30;99.90;;;;;;5960317;24;20454;-70
2022/03/09 04:36:40;;;;;;;7.97;6.60;;;0.30;99.90;;;;;;5988201;24;20493;-70
2022/03/09 04:39:09;;;;;;;8.33;7.50;;;0.30;99.90;;;;;;5986379;24;20462;-69
2022/03/09 04:41:37;;;;;;;8.97;6.23;;;0.30;99.90;;;;;;5987104;24;20422;-70
2022/03/09 04:44:05;;;;;;;6.53;5.93;;;0.30;99.90;;;;;;5983088;23;20477;-69
2022/03/09 04:46:33;;;;;;;6.80;5.70;;;0.30;99.90;;;;;;5987197;24;20491;-69
2022/03/09 04:49:01;;;;;;;7.43;6.23;;;0.30;99.90;;;;;;5986686;24;20521;-69
2022/03/09 04:51:29;;;;;;;8.80;5.93;;;0.30;99.90;;;;;;5986389;24;20414;-69
2022/03/09 04:53:58;;;;;;;8.20;6.33;;;0.20;99.90;;;;;;5983514;23;20466;-69
2022/03/09 04:56:26;;;;;;;6.40;5.80;;;0.20;99.90;;;;;;5951870;24;20917;-69
2022/03/09 04:58:54;;;;;;;8.07;6.80;;;0.30;99.90;;;;;;5986653;24;20472;-69
2022/03/09 05:01:21;;;;;;;7.73;6.30;;;0.40;99.90;;;;;;5986348;24;20446;-69
2022/03/09 05:03:50;;;;;;;6.87;5.73;;;0.20;99.90;;;;;;5984014;23;20546;-70
2022/03/09 05:06:17;;;;;;;8.50;6.87;;;0.20;99.90;;;;;;5985563;24;20479;-69
2022/03/09 05:08:45;;;;;;;7.43;6.33;;;0.20;99.90;;;;;;5986555;24;22287;-69
2022/03/09 05:11:14;;;;;;;6.73;5.90;;;0.20;99.90;;;;;;5952053;24;20489;-69
2022/03/09 05:13:42;;;;;;;7.63;6.27;;;0.20;99.90;;;;;;5995674;23;20829;-69
2022/03/09 05:16:10;;;;;;;6.77;5.57;;;0.20;99.90;;;;;;5989251;24;20415;-69
2022/03/09 05:18:40;;;;;;;8.37;6.10;;;0.20;99.90;;;;;;5985612;24;20446;-69
2022/03/09 05:21:09;;;;;;;6.90;6.30;;;0.20;99.90;;;;;;5986499;24;20449;-69
2022/03/09 05:23:37;;;;;;;6.80;6.03;;;0.20;99.90;;;;;;5985414;23;20438;-69
2022/03/09 05:26:05;;;;;;;6.53;5.90;;;0.20;99.90;;;;;;5986554;24;20497;-69
2022/03/09 05:28:35;;;;;;;6.53;5.93;;;0.20;99.90;;;;;;5986772;24;20411;-69
2022/03/09 05:31:04;;;;;;;7.13;6.10;;;0.20;99.90;;;;;;5986875;24;20417;-69
2022/03/09 05:33:32;;;;;;;7.00;6.17;;;0.30;99.90;;;;;;5975676;23;20532;-69
2022/03/09 05:36:00;;;;;;;9.83;7.00;;;0.30;99.90;;;;;;5986465;24;20422;-69
2022/03/09 05:38:28;;;;;;;7.50;6.70;;;0.30;99.90;;;;;;5985521;24;20410;-69
2022/03/09 05:40:57;;;;;;;7.50;6.80;;;0.40;99.90;;;;;;5952251;24;20422;-69
2022/03/09 05:43:25;;;;;;;9.57;6.90;;;0.40;99.90;;;;;;5985605;24;20426;-68
2022/03/09 05:45:54;;;;;;;7.83;7.10;;;0.50;99.90;;;;;;5975517;23;20447;-71
2022/03/09 05:48:22;;;;;;;6.97;6.07;;;0.50;99.90;;;;;;5952189;24;20422;-70
2022/03/09 05:50:50;;;;;;;6.90;5.93;;;0.60;99.90;;;;;;5950499;24;20481;-70
2022/03/09 05:53:18;;;;;;;7.87;6.20;;;0.60;99.90;;;;;;5985342;24;20553;-70
2022/03/09 05:55:46;;;;;;;8.63;6.73;;;0.50;99.90;;;;;;5976931;23;20469;-69
2022/03/09 05:58:14;;;;;;;9.10;7.17;;;0.50;99.90;;;;;;5987516;24;20485;-70
2022/03/09 06:00:42;;;;;;;8.50;7.30;;;0.50;99.90;;;;;;5987360;24;20741;-69
2022/03/09 06:03:11;;;;;;;8.33;7.53;;;0.50;99.90;;;;;;5985319;24;20438;-69
2022/03/09 06:05:39;;;;;;;7.70;6.87;;;0.50;99.90;;;;;;5977555;23;20477;-70
2022/03/09 06:08:07;;;;;;;8.80;7.30;;;0.50;99.90;;;;;;5985965;24;20406;-70
2022/03/09 06:10:35;;;;;;;9.37;7.27;;;0.50;99.90;;;;;;5984440;24;20430;-69
2022/03/09 06:13:03;;;;;;;8.30;7.07;;;0.50;99.90;;;;;;5994485;23;20485;-72
2022/03/09 06:15:32;;;;;;;8.63;6.67;;;0.50;99.90;;;;;;5981304;23;20478;-72
2022/03/09 06:18:00;;;;;;;8.70;7.13;;;0.50;99.90;;;;;;5985317;24;20418;-72
2022/03/09 06:20:29;;;;;;;10.47;7.60;;;0.60;99.90;;;;;;5974217;24;20457;-73
2022/03/09 06:22:57;;;;;;;10.83;7.37;;;0.70;99.90;;;;;;5987732;24;20441;-72
2022/03/09 06:25:25;;;;;;;8.27;6.87;;;0.70;99.90;;;;;;5978603;24;20465;-73
2022/03/09 06:27:55;;;;;;;8.90;7.50;;;0.70;99.90;;;;;;5979982;24;20470;-71
2022/03/09 06:30:28;;;;;;;7.73;6.93;;;0.80;99.90;;;;;;5988236;24;20448;-73
2022/03/09 06:32:57;;;;;;;10.17;6.80;;;0.80;99.90;;;;;;5985427;24;20439;-72
2022/03/09 06:35:25;;;;;;;11.00;7.10;;;0.80;99.90;;;;;;5970664;23;20454;-73
2022/03/09 06:37:55;;;;;;;9.30;7.50;;;0.80;99.90;;;;;;6016380;23;20428;-72
2022/03/09 06:40:22;;;;;;;13.13;7.27;;;1.00;99.90;;;;;;6012447;23;20421;-72
2022/03/09 06:42:50;;;;;;;10.03;7.63;;;1.00;99.90;;;;;;5979858;23;20456;-73
2022/03/09 06:45:25;;;;;;;8.30;7.50;;;1.00;99.90;;;;;;5984671;23;20510;-72
2022/03/09 06:47:53;;;;;;;8.27;6.80;;;1.10;99.90;;;;;;5987032;24;20414;-73
2022/03/09 06:50:23;;;;;;;8.10;7.03;;;1.10;99.90;;;;;;5986997;24;20442;-72
2022/03/09 06:52:50;;;;;;;8.83;7.93;;;1.20;99.90;;;;;;5988290;24;20436;-73
2022/03/09 06:55:20;;;;;;;12.07;8.50;;;1.20;99.90;;;;;;5981495;24;20541;-72
2022/03/09 06:57:48;;;;;;;10.63;7.70;;;1.30;99.90;;;;;;5988475;24;20426;-72
2022/03/09 07:00:20;;;;;;;11.30;7.43;;;1.30;99.90;;;;;;5991446;24;20434;-72
2022/03/09 07:02:48;;;;;;;19.30;8.43;;;1.30;99.90;;;;;;6000599;24;20470;-72
2022/03/09 07:05:16;;;;;;;10.33;7.23;;;1.40;99.90;;;;;;5976365;24;20480;-72
2022/03/09 07:07:44;;;;;;;8.30;7.50;;;1.50;99.90;;;;;;5984118;24;20642;-73
2022/03/09 07:10:13;;;;;;;9.23;7.87;;;1.50;99.90;;;;;;5984917;24;20437;-73
2022/03/09 07:12:45;;;;;;;8.20;7.40;;;1.60;99.90;;;;;;5987469;24;20446;-73
2022/03/09 07:15:14;;;;;;;8.67;7.43;;;1.70;99.90;;;;;;5979949;24;20466;-72
2022/03/09 07:17:42;;;;;;;11.03;7.50;;;1.70;99.90;;;;;;5992231;24;20497;-72
2022/03/09 07:20:11;;;;;;;8.07;7.27;;;1.70;99.90;;;;;;5990502;24;20455;-72
2022/03/09 07:22:40;;;;;;;8.10;6.97;;;1.80;99.90;;;;;;5989635;24;20502;-72
2022/03/09 07:25:10;;;;;;;9.47;7.30;;;1.80;99.90;;;;;;5981206;24;20454;-72
2022/03/09 07:27:38;;;;;;;10.13;7.90;;;1.90;99.90;;;;;;5987026;24;20411;-72
2022/03/09 07:30:09;;;;;;;9.80;7.80;;;2.00;99.90;;;;;;5987420;24;20452;-73
2022/03/09 07:32:37;;;;;;;9.37;7.80;;;2.00;99.90;;;;;;5989833;24;20466;-72
2022/03/09 07:35:23;;;;;;;9.27;7.33;;;2.10;99.90;;;;;;5981521;24;20457;-73
2022/03/09 07:37:51;;;;;;;10.50;8.43;;;2.20;99.90;;;;;;5988070;24;20495;-73
2022/03/09 07:40:20;;;;;;;8.60;7.40;;;2.20;99.90;;;;;;5986797;24;20743;-73
2022/03/09 07:42:48;;;;;;;8.37;7.50;;;2.30;99.90;;;;;;5988080;24;20466;-73
2022/03/09 07:45:19;;;;;;;9.83;7.83;;;2.40;99.90;;;;;;5981032;24;20465;-73
2022/03/09 07:47:47;;;;;;;8.20;7.40;;;2.50;99.90;;;;;;5988983;24;20419;-72
2022/03/09 07:50:15;;;;;;;8.83;7.37;;;2.60;99.90;;;;;;5989332;24;20446;-72
2022/03/09 07:52:43;;;;;;;10.03;8.67;;;2.60;99.90;;;;;;5987065;24;20438;-73
2022/03/09 07:55:11;;;;;;;8.37;7.07;;;2.70;99.90;;;;;;5980168;24;20457;-73
2022/03/09 07:57:39;;;;;;;7.60;6.60;;;2.80;99.90;;;;;;5989007;24;20456;-73
2022/03/09 08:00:08;;;;;;;10.17;7.47;;;2.80;99.90;;;;;;5980584;24;20466;-72
2022/03/09 08:02:37;;;;;;;8.70;7.50;;;2.90;99.90;;;;;;5991453;24;20434;-72
2022/03/09 08:05:06;;;;;;;9.20;6.97;;;3.00;99.90;;;;;;5983662;24;20454;-72
2022/03/09 08:07:34;;;;;;;8.70;7.60;;;3.10;99.90;;;;;;5992105;24;20445;-73
2022/03/09 08:10:02;;;;;;;7.90;6.87;;;3.10;99.90;;;;;;5988504;24;20418;-72
2022/03/09 08:12:30;;;;;;;8.57;7.57;;;3.20;99.90;;;;;;5979697;24;20462;-73
2022/03/09 08:14:57;;;;;;;8.63;7.70;;;3.30;99.90;;;;;;5982392;24;20834;-73
2022/03/09 08:17:25;;;;;;;7.70;7.00;;;3.40;99.90;;;;;;5991050;24;20442;-72
2022/03/09 08:20:00;;;;;;;9.70;7.37;;;3.40;99.90;;;;;;5986453;24;20411;-73
2022/03/09 08:22:27;;;;;;;8.47;7.27;;;3.50;99.90;;;;;;5989112;24;20430;-73
2022/03/09 08:24:55;;;;;;;8.03;7.20;;;3.50;99.90;;;;;;5981228;24;20450;-73
2022/03/09 08:27:23;;;;;;;10.37;7.00;;;3.60;99.90;;;;;;5987767;24;20472;-73
2022/03/09 08:29:51;;;;;;;7.93;7.13;;;3.60;99.90;;;;;;5987607;24;20418;-72
2022/03/09 08:32:20;;;;;;;11.00;7.30;;;3.70;99.90;;;;;;5994265;24;20463;-72
2022/03/09 08:34:48;;;;;;;9.93;7.40;;;3.80;99.90;;;;;;6002160;24;20450;-72
2022/03/09 08:37:17;;;;;;;10.20;7.07;;;3.90;99.90;;;;;;6010912;24;20517;-72
2022/03/09 08:39:48;;;;;;;7.23;6.50;;;4.00;99.90;;;;;;6009765;24;20419;-72
2022/03/09 08:42:16;;;;;;;9.57;6.80;;;4.00;99.90;;;;;;5991828;24;20490;-72
2022/03/09 08:44:44;;;;;;;8.50;7.23;;;4.10;99.90;;;;;;5982764;24;20481;-76
2022/03/09 08:47:12;;;;;;;8.57;7.13;;;4.20;99.90;;;;;;5988116;24;20533;-72
2022/03/09 08:49:40;;;;;;;8.90;7.20;;;4.30;99.90;;;;;;5988334;24;20418;-73
2022/03/09 08:52:10;;;;;;;8.13;6.80;;;4.40;99.90;;;;;;5988668;24;20454;-73
2022/03/09 08:54:40;;;;;;;7.87;7.10;;;4.50;99.90;;;;;;5981523;24;20669;-73
2022/03/09 08:57:08;;;;;;;7.03;6.33;;;4.60;99.90;;;;;;5988895;24;20411;-72
2022/03/09 08:59:36;;;;;;;9.43;6.83;;;4.70;99.90;;;;;;5980128;24;20913;-73
2022/03/09 09:02:04;;;;;;;9.00;6.70;;;4.80;99.90;;;;;;5987050;24;20437;-72
2022/03/09 09:04:33;;;;;;;8.50;7.20;;;5.00;99.90;;;;;;5943721;24;21213;-72
2022/03/09 09:07:01;;;;;;;9.67;6.60;;;5.00;99.90;;;;;;5986873;24;20422;-73
2022/03/09 09:09:29;;;;;;;6.53;5.93;;;5.10;99.90;;;;;;5954231;24;20457;-73
2022/03/09 09:11:59;;;;;;;8.10;6.40;;;5.20;99.90;;;;;;5987216;24;20454;-73
2022/03/09 09:14:27;;;;;;;6.87;6.20;;;5.30;99.90;;;;;;5980758;24;20538;-72
2022/03/09 09:16:55;;;;;;;6.47;5.90;;;5.40;99.90;;;;;;5987673;24;20422;-72
2022/03/09 09:19:23;;;;;;;7.27;6.57;;;5.60;99.90;;;;;;5987787;24;20453;-72
2022/03/09 09:21:51;;;;;;;8.23;6.87;;;5.60;99.90;;;;;;5985438;24;20434;-72
2022/03/09 09:24:19;;;;;;;9.17;6.23;;;5.70;99.90;;;;;;5953244;24;20446;-72
2022/03/09 09:26:47;;;;;;;7.63;6.83;;;5.80;99.90;;;;;;5986885;24;20414;-72
2022/03/09 09:29:29;;;;;;;7.00;6.27;;;5.90;99.90;;;;;;5986329;24;20422;-72
2022/03/09 09:31:56;;;;;;;8.10;7.30;;;5.90;99.90;;;;;;5972291;24;20502;-72
2022/03/09 09:34:25;;;;;;;8.20;6.90;;;6.10;99.90;;;;;;5983884;24;20458;-73
2022/03/09 09:36:52;;;;;;;8.07;6.73;;;6.10;99.90;;;;;;5987942;24;20489;-72
2022/03/09 09:39:21;;;;;;;8.10;7.30;;;6.20;99.90;;;;;;5978642;24;20482;-72
2022/03/09 09:41:52;;;;;;;7.13;6.43;;;6.30;99.90;;;;;;5990662;24;20430;-73
2022/03/09 09:44:23;;;;;;;9.13;7.03;;;6.40;99.90;;;;;;5997415;24;20450;-71
2022/03/09 09:46:53;;;;;;;7.30;6.60;;;6.50;99.90;;;;;;5998233;24;20449;-72
2022/03/09 09:49:24;;;;;;;7.97;7.17;;;6.60;99.90;;;;;;5984540;24;20510;-71
2022/03/09 09:51:54;;;;;;;8.03;7.07;;;6.70;99.90;;;;;;5985028;24;20541;-72
2022/03/09 09:54:24;;;;;;;10.10;7.70;;;6.70;99.90;;;;;;5949723;24;20565;-72
2022/03/09 09:56:55;;;;;;;11.23;7.73;;;6.80;99.90;;;;;;5984194;24;20426;-72
2022/03/09 09:59:23;;;;;;;10.87;7.90;;;6.90;99.90;;;;;;5981158;24;20429;-72
2022/03/09 10:01:55;;;;;;;10.47;7.77;;;7.00;99.90;;;;;;5984798;24;20430;-71
2022/03/09 10:04:25;;;;;;;9.53;7.73;;;7.10;99.90;;;;;;5980080;24;20538;-72
2022/03/09 10:06:55;;;;;;;8.43;7.53;;;7.20;99.90;;;;;;5984498;24;20501;-72
2022/03/09 10:09:23;;;;;;;9.00;8.10;;;7.20;99.90;;;;;;5971832;24;20429;-71
2022/03/09 10:11:53;;;;;;;8.80;7.53;;;7.40;99.90;;;;;;5974532;24;21000;-72
2022/03/09 10:14:41;;;;;;;8.57;7.77;;;7.50;99.90;;;;;;5981157;24;20454;-72
2022/03/09 10:17:12;;;;;;;10.07;8.03;;;7.60;99.90;;;;;;5985579;24;20418;-72
2022/03/09 10:19:42;;;;;;;8.17;7.23;;;7.70;99.90;;;;;;5981658;24;20463;-71
2022/03/09 10:22:28;;;;;;;10.87;7.40;;;7.80;99.90;;;;;;5984323;24;20433;-72
2022/03/09 10:25:20;;;;;;;9.70;8.23;;;7.90;99.90;;;;;;5949903;24;20450;-72
2022/03/09 10:27:50;;;;;;;10.60;7.40;;;8.10;99.90;;;;;;5966954;24;20790;-72
2022/03/09 10:30:19;;;;;;;7.73;7.03;;;8.20;99.90;;;;;;5979143;24;20445;-71
2022/03/09 10:32:54;;;;;;;11.77;7.00;;;8.40;99.90;;;;;;5987244;24;20449;-72
2022/03/09 10:35:41;;;;;;;7.53;6.70;;;8.50;99.90;;;;;;5974551;24;20533;-72
2022/03/09 10:38:23;;;;;;;7.30;6.60;;;8.60;99.90;;;;;;5984605;24;20494;-72
2022/03/09 10:40:54;;;;;;;8.20;7.40;;;8.80;99.90;;;;;;5983426;24;20505;-72
2022/03/09 10:43:25;;;;;;;8.40;7.43;;;8.90;99.90;;;;;;5977341;24;20426;-72
2022/03/09 10:46:01;;;;;;;7.33;6.37;;;8.90;99.90;;;;;;5973787;24;20468;-72
2022/03/09 10:48:50;;;;;;;7.30;6.60;;;9.00;99.90;;;;;;5982515;24;20512;-72
2022/03/09 10:51:32;;;;;;;7.23;6.53;;;9.00;99.90;;;;;;5983754;24;20605;-72
2022/03/09 10:54:03;;;;;;;7.60;6.87;;;9.10;99.90;;;;;;5950055;24;20506;-72
2022/03/09 10:56:31;;;;;;;7.87;6.93;;;9.20;99.90;;;;;;5983772;24;20423;-71
2022/03/09 10:59:10;;;;;;;8.43;6.40;;;9.30;99.90;;;;;;5985142;24;20489;-71
2022/03/09 11:01:39;;;;;;;7.77;6.67;;;9.50;99.90;;;;;;5976016;24;20422;-72
2022/03/09 11:04:16;;;;;;;8.63;7.73;;;9.70;99.90;;;;;;5982599;24;20454;-72
2022/03/09 11:06:47;;;;;;;7.93;7.13;;;9.80;99.90;;;;;;5973302;24;20413;-71
2022/03/09 11:09:17;;;;;;;7.23;6.53;;;10.00;99.90;;;;;;5965587;24;20422;-72
2022/03/09 11:11:48;;;;;;;9.17;6.53;;;10.10;99.90;;;;;;5985845;24;20413;-72
2022/03/09 11:14:17;;;;;;;7.30;6.50;;;10.20;99.90;;;;;;5983119;24;20545;-72
2022/03/09 11:16:46;;;;;;;7.43;6.73;;;10.30;99.90;;;;;;5952509;24;20460;-72
2022/03/09 11:19:18;;;;;;;7.77;6.97;;;10.40;99.90;;;;;;5969515;24;20574;-72
2022/03/09 11:21:47;;;;;;;7.00;6.30;;;10.50;99.90;;;;;;5979597;24;20505;-72
2022/03/09 11:24:19;;;;;;;7.20;6.50;;;10.60;99.90;;;;;;5985318;24;20458;-72
2022/03/09 11:26:50;;;;;;;12.57;6.80;;;10.70;99.90;;;;;;5992435;24;20442;-72
2022/03/09 11:29:29;;;;;;;8.40;7.17;;;10.90;99.90;;;;;;5981252;24;20520;-72
2022/03/09 11:31:57;;;;;;;7.67;6.87;;;11.10;99.90;;;;;;5979376;24;20501;-71
2022/03/09 11:34:34;;;;;;;9.40;6.50;;;11.20;99.90;;;;;;5980336;24;20450;-72
2022/03/09 11:37:03;;;;;;;8.77;7.30;;;11.40;99.90;;;;;;5986783;24;20504;-72
2022/03/09 11:39:31;;;;;;;6.97;6.20;;;11.50;99.90;;;;;;5974751;24;20434;-72
2022/03/09 11:42:24;;;;;;;7.47;6.20;;;11.70;99.90;;;;;;5950281;24;20458;-71
2022/03/09 11:45:16;;;;;;;6.80;6.20;;;11.90;99.90;;;;;;5980336;24;20452;-72
2022/03/09 11:47:58;;;;;;;7.30;6.60;;;12.10;99.90;;;;;;5982490;24;20422;-72
2022/03/09 11:50:29;;;;;;;7.43;6.73;;;12.20;99.90;;;;;;5986473;24;20532;-72
2022/03/09 11:53:00;;;;;;;7.33;6.50;;;12.20;99.90;;;;;;5980839;24;20510;-72
2022/03/09 11:55:29;;;;;;;7.73;6.97;;;12.30;99.90;;;;;;5971497;24;20929;-72
2022/03/09 11:58:11;;;;;;;8.87;6.63;;;12.50;99.90;;;;;;5976701;24;20511;-72
2022/03/09 12:00:41;;;;;;;7.93;7.23;;;12.60;99.90;;;;;;5982581;24;20445;-72
2022/03/09 12:03:09;;;;;;;7.80;7.00;;;12.80;99.90;;;;;;5984525;24;20437;-74
2022/03/09 12:05:41;;;;;;;8.43;7.63;;;12.90;99.90;;;;;;5973875;24;20905;-72
2022/03/09 12:08:10;;;;;;;7.27;6.10;;;13.10;99.90;;;;;;5986550;24;20415;-72
2022/03/09 12:10:56;;;;;;;7.23;6.60;;;13.30;99.90;;;;;;5982162;24;20422;-72
2022/03/09 12:13:32;;;;;;;7.47;6.83;;;13.50;99.90;;;;;;5985189;24;20444;-73
2022/03/09 12:16:26;;;;;;;8.10;7.20;;;13.80;99.90;;;;;;5995196;23;20824;-72
2022/03/09 12:19:13;;;;;;;12.10;7.00;;;13.90;98.20;;;;;;6010130;23;20394;-72
2022/03/09 12:22:07;;;;;;;7.73;6.93;;;14.20;99.30;;;;;;6003386;23;20417;-72
2022/03/09 12:24:39;;;;;;;6.77;6.20;;;14.50;99.40;;;;;;5957371;23;20959;-73
2022/03/09 12:27:27;;;;;;;6.53;6.00;;;14.90;99.10;;;;;;5995663;23;20527;-73
2022/03/09 12:29:55;;;;;;;7.80;6.70;;;15.50;97.60;;;;;;6023725;23;20425;-72
2022/03/09 12:32:24;;;;;;;7.40;6.80;;;16.30;96.80;;;;;;6005406;23;20445;-73
2022/03/09 12:34:53;;;;;;;10.20;7.50;;;17.10;96.60;;;;;;6007172;23;20478;-72
2022/03/09 12:37:26;;;;;;;8.80;8.00;;;17.70;95.90;;;;;;6002023;23;20421;-72
2022/03/09 12:39:57;;;;;;;9.70;7.67;;;18.50;92.20;;;;;;6012710;23;20497;-72
2022/03/09 12:42:27;;;;;;;7.63;6.97;;;19.30;84.60;;;;;;6013653;23;20433;-69
2022/03/09 12:45:00;;;;;;;6.93;6.30;;;20.70;88.80;;;;;;5997890;23;20545;-71
2022/03/09 12:47:28;;;;;;;6.97;6.47;;;22.40;77.30;;;;;;6005675;23;20460;-71
2022/03/09 12:49:56;;;;;;;7.20;6.60;;;24.60;68.30;;;;;;5996786;23;20425;-71
2022/03/09 12:52:25;;;;;;;7.50;7.00;;;26.70;60.20;;;;;;5990346;23;20506;-72
2022/03/09 12:54:55;;;;;;;7.00;6.50;;;27.90;58.00;;;;;;6002238;23;20974;-71
2022/03/09 12:57:25;;;;;;;6.83;6.33;;;28.90;47.10;;;;;;5996891;23;20621;-72
2022/03/09 12:59:57;;;;;;;7.27;6.67;;;29.60;47.00;;;;;;6011617;23;20429;-72
2022/03/09 13:02:25;;;;;;;6.47;5.97;;;29.70;44.80;;;;;;6009835;23;20708;-73
2022/03/09 13:04:58;;;;;;;6.53;5.93;;;30.30;41.80;;;;;;5989886;23;20464;-72
2022/03/09 13:07:27;;;;;;;6.40;6.00;;;30.20;40.20;;;;;;5976715;24;20485;-73
2022/03/09 13:10:05;;;;;;;6.13;5.73;;;30.70;41.20;;;;;;5968807;24;20418;-74